Terminal Aerodrome Forecast
Issued by NWS Indianapolis, IN

Home | Current Version | Previous Version | Text Only | Print | Product List | Glossary On
Versions: 1 2 3 4 5 6 7 8 9 10 11 12 13 14 15 16 17 18 19 20 21 22 23 24 25 26 27 28
562
FTUS43 KIND 281725
TAFIND
TAF
KIND 281725Z 2818/2924 24014KT P6SM VCTS BKN035CB
     FM282200 26014KT P6SM SHRA BKN060
      TEMPO 2822/2823 4SM TS OVC040CB
     FM282300 26013KT P6SM VCTS BKN070CB
     FM290300 27006KT P6SM SCT200
     FM291400 24006KT P6SM FEW200=

USA.gov is the U.S. government's official web portal to all federal, state and local government web resources and services.